createdAt,value
2022-08-12T00:06:37.868Z,48.96
2022-08-12T00:12:56.805Z,47.42
2022-08-12T00:16:21.786Z,47.20
2022-08-12T00:19:41.954Z,47.32
2022-08-12T00:33:51.763Z,47.66
2022-08-12T00:46:40.226Z,48.12
2022-08-12T00:49:35.409Z,48.57
2022-08-12T00:52:24.226Z,48.39
2022-08-12T00:58:04.143Z,47.97
2022-08-12T01:00:34.470Z,48.91
2022-08-12T01:03:06.504Z,50.01
2022-08-12T01:05:57.570Z,50.15
2022-08-12T01:08:44.312Z,50.77
2022-08-12T01:11:30.930Z,49.93
2022-08-12T01:14:02.525Z,48.81
2022-08-12T01:16:31.190Z,50.37
2022-08-12T01:19:01.355Z,50.58
2022-08-12T01:22:10.432Z,49.78
2022-08-12T01:24:53.307Z,50.71
2022-08-12T01:27:23.861Z,50.69
2022-08-12T01:29:54.697Z,50.12
2022-08-12T01:32:26.867Z,51.32
2022-08-12T01:35:11.710Z,50.86
2022-08-12T01:37:57.479Z,51.26
2022-08-12T01:40:36.466Z,50.73
2022-08-12T01:43:13.560Z,52.02
2022-08-12T01:46:00.620Z,51.03
2022-08-12T01:48:55.384Z,51.32
2022-08-12T01:52:20.288Z,50.35
2022-08-12T01:54:44.276Z,52.51
2022-08-12T01:57:58.463Z,51.27
2022-08-12T02:00:55.046Z,50.65
2022-08-12T02:04:28.736Z,51.66
2022-08-12T02:07:56.509Z,52.76
2022-08-12T02:11:02.161Z,52.60
2022-08-12T02:14:01.853Z,51.83
2022-08-12T02:16:58.136Z,51.83
2022-08-12T02:20:52.183Z,52.21
2022-08-12T02:23:28.130Z,53.29
2022-08-12T02:26:03.564Z,52.48
2022-08-12T02:28:32.097Z,52.37
2022-08-12T02:31:08.992Z,52.38
2022-08-12T02:33:38.149Z,52.47
2022-08-12T02:36:06.633Z,53.17
2022-08-12T02:38:36.963Z,51.98
2022-08-12T02:41:07.494Z,51.52
2022-08-12T02:43:55.656Z,51.84
2022-08-12T02:46:34.706Z,53.01
2022-08-12T02:49:17.507Z,53.02
2022-08-12T02:51:45.800Z,52.85
2022-08-12T02:54:14.740Z,54.41
2022-08-12T02:56:50.336Z,54.82
2022-08-12T02:59:24.389Z,54.12
2022-08-12T03:01:57.117Z,54.11
2022-08-12T03:04:30.471Z,52.79
2022-08-12T03:07:21.809Z,53.71
2022-08-12T03:10:04.154Z,54.27
2022-08-12T03:12:48.945Z,55.63
2022-08-12T03:15:24.035Z,55.69
2022-08-12T03:18:25.579Z,54.79
2022-08-12T03:20:59.839Z,54.09
2022-08-12T03:23:31.305Z,54.87
2022-08-12T03:26:02.656Z,53.35
2022-08-12T03:28:50.811Z,55.85
2022-08-12T03:31:24.922Z,55.63
2022-08-12T03:34:01.811Z,55.64
2022-08-12T03:36:38.993Z,54.97
2022-08-12T03:39:16.689Z,54.51
2022-08-12T03:41:54.143Z,56.85
2022-08-12T03:45:28.155Z,56.11
2022-08-12T03:48:30.493Z,54.62
2022-08-12T03:51:19.133Z,56.44
2022-08-12T03:54:07.903Z,56.42
2022-08-12T03:56:56.470Z,56.25
2022-08-12T03:59:43.138Z,57.34
2022-08-12T04:02:16.267Z,58.00
2022-08-12T04:04:45.861Z,55.87
2022-08-12T04:07:16.455Z,56.29
2022-08-12T04:09:46.866Z,56.82
2022-08-12T04:12:34.133Z,55.89
2022-08-12T04:15:03.697Z,57.67
2022-08-12T04:17:33.834Z,55.64
2022-08-12T04:20:02.124Z,55.13
2022-08-12T04:22:31.182Z,54.77
2022-08-12T04:25:03.305Z,58.09
2022-08-12T04:27:32.790Z,56.92
2022-08-12T04:30:16.686Z,56.75
2022-08-12T04:32:52.384Z,58.21
2022-08-12T04:35:22.438Z,57.08
2022-08-12T04:37:59.962Z,56.88
2022-08-12T04:40:33.334Z,57.34
2022-08-12T04:43:02.441Z,57.59
2022-08-12T04:45:37.841Z,56.90
2022-08-12T04:48:07.385Z,56.77
2022-08-12T04:50:37.264Z,56.61
2022-08-12T04:53:09.029Z,56.86
2022-08-12T04:55:40.984Z,57.94
2022-08-12T04:58:10.085Z,57.51
2022-08-12T05:00:38.646Z,59.84
2022-08-12T05:03:07.910Z,58.22
2022-08-12T05:05:40.793Z,59.01
2022-08-12T05:08:15.919Z,57.66
2022-08-12T05:10:46.734Z,58.34
2022-08-12T05:13:23.790Z,58.73
2022-08-12T05:16:04.986Z,58.72
2022-08-12T05:18:40.101Z,58.08
2022-08-12T05:21:09.673Z,56.95
2022-08-12T05:23:40.475Z,57.42
2022-08-12T05:26:09.002Z,59.28
2022-08-12T05:28:37.834Z,60.11
2022-08-12T05:31:06.247Z,57.84
2022-08-12T05:33:37.943Z,56.92
2022-08-12T05:36:09.997Z,57.33
2022-08-12T05:38:57.003Z,57.61
2022-08-12T05:41:32.254Z,57.41
2022-08-12T05:44:07.367Z,57.12
2022-08-12T05:46:37.254Z,56.86
2022-08-12T05:49:06.826Z,56.76
2022-08-12T05:51:40.226Z,56.59
2022-08-12T05:54:11.799Z,56.02
2022-08-12T05:56:43.530Z,55.66
2022-08-12T05:59:12.839Z,55.04
2022-08-12T06:02:11.406Z,55.48
2022-08-12T06:04:31.596Z,55.53
2022-08-12T06:07:01.914Z,55.42
2022-08-12T06:09:31.096Z,54.60
2022-08-12T06:12:05.893Z,54.82
2022-08-12T06:14:37.910Z,54.16
2022-08-12T06:17:10.569Z,54.67
2022-08-12T06:20:26.520Z,54.92
2022-08-12T06:22:27.329Z,54.37
2022-08-12T06:24:55.638Z,54.31
2022-08-12T06:27:23.950Z,54.04
2022-08-12T06:30:09.445Z,53.40
2022-08-12T06:33:04.272Z,52.57
2022-08-12T06:35:48.277Z,52.25
2022-08-12T06:38:22.719Z,52.13
2022-08-12T06:41:18.634Z,51.60
2022-08-12T06:44:05.013Z,50.48
2022-08-12T06:46:38.914Z,50.54
2022-08-12T06:49:12.537Z,50.75
2022-08-12T06:51:40.968Z,50.60
2022-08-12T06:54:11.528Z,50.10
2022-08-12T06:57:03.033Z,49.58
2022-08-12T06:59:28.286Z,49.39
2022-08-12T07:01:56.551Z,48.71
2022-08-12T07:04:40.296Z,48.56
2022-08-12T07:07:10.612Z,47.37
2022-08-12T07:10:04.629Z,47.69
2022-08-12T07:15:45.412Z,47.17
2022-08-12T07:18:17.852Z,46.92
2022-08-12T07:20:52.687Z,46.04
2022-08-12T07:23:21.351Z,46.78
2022-08-12T07:25:49.492Z,45.89
2022-08-12T07:28:24.810Z,45.84
2022-08-12T07:30:55.033Z,44.96
2022-08-12T07:33:28.232Z,44.45
2022-08-12T07:36:02.359Z,43.57
2022-08-12T07:38:35.944Z,44.61
2022-08-12T07:41:16.531Z,43.54
2022-08-12T07:43:51.573Z,42.93
2022-08-12T07:46:24.461Z,41.68
2022-08-12T07:48:57.862Z,42.32
2022-08-12T07:51:27.966Z,41.58
2022-08-12T07:54:00.367Z,40.20
2022-08-12T07:56:31.612Z,41.15
2022-08-12T07:59:01.159Z,41.17
2022-08-12T08:01:30.466Z,40.77
2022-08-12T08:04:19.345Z,39.49
2022-08-12T08:06:50.077Z,37.68
2022-08-12T08:09:22.275Z,39.02
2022-08-12T08:12:19.730Z,38.18
2022-08-12T08:14:49.841Z,37.19
2022-08-12T08:17:18.634Z,37.85
2022-08-12T08:20:03.522Z,37.82
2022-08-12T08:22:41.810Z,37.29
2022-08-12T08:25:34.308Z,36.67
2022-08-12T08:28:17.371Z,36.20
2022-08-12T08:30:50.497Z,35.24
2022-08-12T08:34:01.466Z,35.71
2022-08-12T08:36:23.506Z,33.82
2022-08-12T08:38:58.048Z,33.62
2022-08-12T08:42:17.638Z,32.35
2022-08-12T08:44:38.369Z,32.39
2022-08-12T08:47:09.107Z,32.58
2022-08-12T08:49:39.919Z,31.07
2022-08-12T08:52:11.345Z,32.61
2022-08-12T08:54:40.679Z,31.76
2022-08-12T08:57:08.866Z,32.53
2022-08-12T08:59:37.070Z,30.48
2022-08-12T09:02:07.766Z,30.83
2022-08-12T09:05:12.373Z,31.09
2022-08-12T09:07:51.052Z,29.81
2022-08-12T09:10:25.219Z,30.19
2022-08-12T09:13:23.732Z,29.52
2022-08-12T09:15:59.627Z,29.49
2022-08-12T09:18:33.161Z,28.96
2022-08-12T09:21:03.898Z,28.33
2022-08-12T09:24:00.419Z,28.46
2022-08-12T09:26:28.809Z,27.56
2022-08-12T09:28:58.328Z,27.58
2022-08-12T09:32:03.276Z,27.34
2022-08-12T09:34:26.600Z,27.40
2022-08-12T09:37:19.920Z,26.69
2022-08-12T09:40:06.575Z,28.12
2022-08-12T09:43:16.541Z,26.66
2022-08-12T09:46:14.329Z,28.23
2022-08-12T09:48:40.308Z,26.80
2022-08-12T09:51:37.381Z,25.92
2022-08-12T09:54:31.100Z,26.57
2022-08-12T09:57:00.468Z,25.87
2022-08-12T10:00:14.633Z,26.30
2022-08-12T10:02:44.845Z,26.14
2022-08-12T10:05:13.925Z,26.04
2022-08-12T10:07:45.836Z,25.63
2022-08-12T10:10:22.994Z,24.98
2022-08-12T10:13:34.390Z,27.51
2022-08-12T10:16:08.222Z,25.97
2022-08-12T10:18:57.474Z,25.36
2022-08-12T10:21:37.657Z,24.65
2022-08-12T10:24:14.382Z,24.52
2022-08-12T10:27:07.294Z,24.25
2022-08-12T10:30:37.938Z,23.96
2022-08-12T10:32:45.206Z,23.65
2022-08-12T10:35:16.667Z,24.66
2022-08-12T10:38:34.940Z,23.48
2022-08-12T10:40:55.692Z,24.19
2022-08-12T10:43:55.542Z,24.45
2022-08-12T10:46:31.356Z,25.05
2022-08-12T10:49:07.073Z,23.54
2022-08-12T10:52:02.931Z,23.89
2022-08-12T10:54:37.745Z,23.79
2022-08-12T10:57:06.478Z,23.37
2022-08-12T11:00:33.788Z,23.73
2022-08-12T11:04:22.847Z,23.78
2022-08-12T11:07:02.947Z,23.24
2022-08-12T11:08:34.641Z,23.27
2022-08-12T11:10:56.718Z,22.54
2022-08-12T11:13:46.066Z,22.14
2022-08-12T11:16:19.524Z,23.68
2022-08-12T11:18:55.328Z,23.62
2022-08-12T11:21:56.397Z,22.98
2022-08-12T11:24:30.675Z,23.47
2022-08-12T11:27:07.708Z,23.03
2022-08-12T11:30:06.566Z,25.68
2022-08-12T11:32:27.033Z,23.56
2022-08-12T11:34:55.443Z,23.93
2022-08-12T11:37:27.667Z,22.05
2022-08-12T11:42:39.793Z,21.90
2022-08-12T11:45:16.383Z,21.55
2022-08-12T11:47:45.615Z,21.74
2022-08-12T11:50:19.632Z,21.95
2022-08-12T11:53:02.313Z,21.81
2022-08-12T11:55:33.077Z,22.39
2022-08-12T11:58:14.643Z,22.53
2022-08-12T12:03:44.039Z,22.90
2022-08-12T12:06:16.925Z,23.37
2022-08-12T12:08:51.359Z,22.81
2022-08-12T12:11:22.754Z,23.17
2022-08-12T12:14:06.849Z,24.77
2022-08-12T12:16:39.950Z,24.77
2022-08-12T12:19:10.625Z,23.67
2022-08-12T12:21:47.323Z,23.09
2022-08-12T12:24:21.473Z,23.22
2022-08-12T12:27:00.441Z,22.93
2022-08-12T12:30:18.298Z,23.45
2022-08-12T12:32:28.864Z,24.25
2022-08-12T12:35:13.466Z,23.69
2022-08-12T12:38:05.660Z,22.22
2022-08-12T12:40:44.162Z,24.50
2022-08-12T12:43:17.584Z,22.78
2022-08-12T12:45:57.369Z,22.51
2022-08-12T12:48:25.572Z,23.78
2022-08-12T12:51:14.941Z,23.07
2022-08-12T12:54:08.432Z,23.72
2022-08-12T12:56:41.943Z,23.39
2022-08-12T12:59:54.418Z,23.07
2022-08-12T13:02:07.968Z,22.44
2022-08-12T13:04:37.960Z,22.21
2022-08-12T13:07:06.937Z,22.25
2022-08-12T13:09:36.616Z,22.62
2022-08-12T13:12:10.903Z,23.07
2022-08-12T13:14:39.974Z,24.11
2022-08-12T13:17:14.691Z,23.76
2022-08-12T13:19:46.996Z,23.51
2022-08-12T13:22:23.849Z,23.84
2022-08-12T13:24:56.148Z,24.54
2022-08-12T13:27:35.282Z,24.70
2022-08-12T13:30:12.504Z,23.40
2022-08-12T13:32:57.382Z,22.27
2022-08-12T13:36:05.957Z,22.92
2022-08-12T13:38:54.404Z,21.90
2022-08-12T13:41:35.810Z,22.61
2022-08-12T13:44:10.573Z,22.75
2022-08-12T13:46:58.775Z,23.08
2022-08-12T13:49:55.234Z,23.98
2022-08-12T13:52:19.418Z,24.13
2022-08-12T13:54:56.382Z,23.57
2022-08-12T13:57:44.572Z,23.93
2022-08-12T14:00:16.636Z,23.46
2022-08-12T14:02:45.043Z,22.85
2022-08-12T14:05:38.419Z,23.50
2022-08-12T14:08:10.953Z,23.06
2022-08-12T14:10:55.823Z,23.02
2022-08-12T14:14:05.306Z,23.16
2022-08-12T14:16:37.737Z,23.23
2022-08-12T14:19:18.305Z,22.35
2022-08-12T14:22:00.442Z,22.36
2022-08-12T14:24:40.757Z,23.34
2022-08-12T14:27:11.069Z,23.25
2022-08-12T14:30:06.080Z,23.34
2022-08-12T14:32:35.769Z,23.30
2022-08-12T14:35:09.621Z,22.89
2022-08-12T14:37:56.932Z,22.87
2022-08-12T14:40:29.969Z,22.88
2022-08-12T14:42:59.364Z,23.00
2022-08-12T14:45:44.287Z,23.28
2022-08-12T14:48:24.505Z,23.36
2022-08-12T14:52:07.791Z,23.75
2022-08-12T14:55:24.794Z,23.04
2022-08-12T14:59:57.896Z,24.87
2022-08-12T15:02:28.646Z,24.74
2022-08-12T15:04:59.676Z,24.81
2022-08-12T15:07:50.068Z,24.51
2022-08-12T15:10:31.915Z,24.03
2022-08-12T15:13:07.220Z,23.99
2022-08-12T15:15:45.977Z,24.24
2022-08-12T15:18:20.951Z,23.49
2022-08-12T15:20:54.754Z,24.08
2022-08-12T15:23:32.727Z,24.14
2022-08-12T15:26:06.283Z,23.61
2022-08-12T15:28:35.700Z,23.93
2022-08-12T15:31:09.527Z,23.59
2022-08-12T15:33:57.345Z,23.38
2022-08-12T15:36:40.846Z,23.35
2022-08-12T15:39:17.203Z,25.37
2022-08-12T15:41:50.269Z,24.44
2022-08-12T15:44:41.591Z,24.04
2022-08-12T15:47:08.943Z,24.30
2022-08-12T15:49:54.931Z,23.65
2022-08-12T15:52:29.401Z,23.75
2022-08-12T15:55:05.072Z,23.83
2022-08-12T15:57:53.844Z,23.60
2022-08-12T16:00:32.778Z,23.42
2022-08-12T16:03:08.628Z,23.92
2022-08-12T16:06:16.906Z,24.87
2022-08-12T16:08:39.508Z,26.06
2022-08-12T16:11:14.968Z,24.66
2022-08-12T16:13:47.172Z,24.42
2022-08-12T16:16:23.943Z,24.29
2022-08-12T16:19:01.918Z,24.73
2022-08-12T16:21:50.684Z,25.69
2022-08-12T16:24:21.987Z,25.33
2022-08-12T16:26:51.343Z,25.50
2022-08-12T16:29:52.071Z,26.30
2022-08-12T16:32:21.172Z,26.00
2022-08-12T16:34:55.466Z,26.08
2022-08-12T16:37:32.747Z,26.26
2022-08-12T16:40:06.146Z,26.64
2022-08-12T16:42:42.063Z,26.41
2022-08-12T16:45:32.247Z,26.78
2022-08-12T16:48:34.153Z,27.28
2022-08-12T16:51:13.857Z,27.24
2022-08-12T16:53:44.508Z,26.78
2022-08-12T16:56:17.350Z,26.64
2022-08-12T16:58:49.473Z,26.35
2022-08-12T17:01:21.081Z,27.04
2022-08-12T17:04:09.266Z,27.18
2022-08-12T17:06:43.365Z,26.58
2022-08-12T17:09:17.376Z,27.49
2022-08-12T17:11:49.385Z,27.41
2022-08-12T17:14:20.509Z,27.24
2022-08-12T17:16:54.928Z,27.84
2022-08-12T17:20:30.678Z,28.46
2022-08-12T17:22:16.694Z,27.53
2022-08-12T17:24:55.554Z,28.28
2022-08-12T17:27:30.942Z,28.79
2022-08-12T17:30:10.131Z,28.37
2022-08-12T17:32:53.397Z,29.69
2022-08-12T17:35:30.174Z,28.65
2022-08-12T17:38:15.495Z,29.60
2022-08-12T17:40:47.048Z,29.39
2022-08-12T17:43:57.020Z,28.78
2022-08-12T17:46:12.459Z,28.11
2022-08-12T17:48:55.133Z,28.73
2022-08-12T17:51:25.743Z,29.33
2022-08-12T17:54:11.223Z,29.36
2022-08-12T17:56:42.959Z,29.33
2022-08-12T17:59:13.274Z,30.14
2022-08-12T18:01:45.548Z,30.17
2022-08-12T18:04:22.820Z,29.34
2022-08-12T18:07:08.333Z,29.35
2022-08-12T18:09:38.043Z,29.54
2022-08-12T18:12:26.866Z,30.95
2022-08-12T18:15:08.949Z,30.16
2022-08-12T18:17:46.941Z,29.81
2022-08-12T18:20:18.182Z,30.49
2022-08-12T18:22:55.891Z,29.97
2022-08-12T18:26:14.837Z,30.10
2022-08-12T18:28:48.385Z,29.74
2022-08-12T18:31:32.936Z,30.17
2022-08-12T18:34:17.128Z,29.64
2022-08-12T18:36:50.361Z,29.77
2022-08-12T18:39:22.516Z,30.88
2022-08-12T18:41:53.145Z,30.32
2022-08-12T18:44:24.078Z,30.78
2022-08-12T18:46:55.886Z,31.06
2022-08-12T18:49:39.076Z,31.37
2022-08-12T18:52:11.483Z,31.85
2022-08-12T18:54:53.956Z,32.19
2022-08-12T18:57:59.702Z,32.17
2022-08-12T19:00:21.140Z,31.73
2022-08-12T19:02:53.135Z,32.27
2022-08-12T19:05:52.733Z,32.68
2022-08-12T19:08:15.344Z,32.57
2022-08-12T19:10:50.778Z,33.02
2022-08-12T19:13:40.468Z,33.43
2022-08-12T19:16:12.472Z,33.16
2022-08-12T19:18:44.691Z,33.68
2022-08-12T19:21:16.818Z,33.89
2022-08-12T19:24:11.953Z,34.20
2022-08-12T19:26:43.383Z,34.30
2022-08-12T19:29:14.519Z,34.83
2022-08-12T19:31:58.993Z,34.44
2022-08-12T19:38:03.186Z,34.64
2022-08-12T19:40:30.922Z,35.31
2022-08-12T19:43:19.926Z,34.62
2022-08-12T19:45:56.727Z,35.65
2022-08-12T19:48:32.601Z,35.64
2022-08-12T19:51:01.619Z,35.83
2022-08-12T19:53:56.964Z,36.07
2022-08-12T19:56:28.769Z,35.79
2022-08-12T19:59:20.594Z,35.52
2022-08-12T20:02:03.353Z,37.31
2022-08-12T20:04:38.967Z,36.47
2022-08-12T20:07:23.706Z,35.87
2022-08-12T20:09:53.670Z,36.48
2022-08-12T20:12:48.752Z,35.72
2022-08-12T20:15:15.399Z,36.67
2022-08-12T20:17:51.130Z,36.68
2022-08-12T20:20:27.620Z,36.12
2022-08-12T20:22:57.188Z,36.62
2022-08-12T20:25:28.436Z,36.68
2022-08-12T20:28:15.406Z,36.62
2022-08-12T20:30:59.279Z,37.01
2022-08-12T20:33:50.279Z,37.11
2022-08-12T20:36:41.117Z,37.93
2022-08-12T20:39:34.433Z,38.28
2022-08-12T20:42:07.254Z,39.14
2022-08-12T20:44:40.913Z,38.24
2022-08-12T20:47:20.241Z,38.70
2022-08-12T20:49:54.817Z,38.24
2022-08-12T20:52:28.989Z,38.70
2022-08-12T20:54:58.498Z,39.53
2022-08-12T20:57:37.994Z,39.77
2022-08-12T21:00:28.290Z,39.21
2022-08-12T21:03:16.642Z,39.75
2022-08-12T21:06:12.510Z,40.00
2022-08-12T21:08:43.827Z,41.60
2022-08-12T21:11:12.079Z,40.37
2022-08-12T21:13:41.858Z,39.83
2022-08-12T21:16:10.613Z,40.39
2022-08-12T21:18:39.776Z,40.20
2022-08-12T21:21:23.676Z,40.80
2022-08-12T21:23:56.280Z,41.74
2022-08-12T21:26:28.043Z,40.76
2022-08-12T21:29:01.757Z,42.19
2022-08-12T21:32:36.384Z,41.20
2022-08-12T21:34:26.355Z,41.00
2022-08-12T21:37:13.271Z,41.53
2022-08-12T21:39:52.097Z,41.33
2022-08-12T21:42:21.055Z,41.05
2022-08-12T21:45:47.858Z,41.32
2022-08-12T21:47:44.790Z,41.60
2022-08-12T21:50:15.441Z,41.01
2022-08-12T21:52:43.660Z,41.38
2022-08-12T21:55:19.984Z,42.21
2022-08-12T21:57:53.213Z,43.34
2022-08-12T22:00:32.989Z,43.03
2022-08-12T22:04:02.847Z,42.60
2022-08-12T22:06:25.864Z,41.42
2022-08-12T22:09:03.850Z,42.94
2022-08-12T22:11:41.865Z,43.30
2022-08-12T22:14:21.346Z,45.01
2022-08-12T22:16:53.991Z,44.64
2022-08-12T22:19:23.048Z,44.33
2022-08-12T22:21:55.807Z,43.73
2022-08-12T22:24:26.792Z,42.86
2022-08-12T22:27:08.183Z,44.69
2022-08-12T22:30:16.146Z,43.81
2022-08-12T22:32:50.781Z,44.26
2022-08-12T22:35:47.212Z,43.87
2022-08-12T22:38:24.278Z,44.40
2022-08-12T22:41:27.675Z,45.68
2022-08-12T22:44:14.949Z,45.38
2022-08-12T22:46:54.145Z,44.97
2022-08-12T22:49:36.278Z,45.60
2022-08-12T22:52:08.607Z,44.95
2022-08-12T22:54:46.157Z,45.25
2022-08-12T22:57:49.200Z,43.67
2022-08-12T23:00:24.631Z,44.62
2022-08-12T23:03:03.077Z,43.80
2022-08-12T23:06:05.428Z,43.39
2022-08-12T23:08:31.935Z,44.49
2022-08-12T23:11:05.872Z,44.22
2022-08-12T23:13:49.175Z,44.33
2022-08-12T23:16:33.551Z,44.91
2022-08-12T23:19:17.966Z,45.91
2022-08-12T23:22:06.568Z,45.73
2022-08-12T23:24:55.947Z,45.70
2022-08-12T23:27:51.873Z,45.26
2022-08-12T23:30:32.088Z,45.42
2022-08-12T23:33:19.786Z,45.41
2022-08-12T23:35:59.024Z,44.78
2022-08-12T23:38:33.247Z,45.31
2022-08-12T23:41:05.697Z,44.63
2022-08-12T23:43:41.048Z,44.12
2022-08-12T23:46:18.703Z,44.79
2022-08-12T23:48:51.897Z,46.19
2022-08-12T23:51:25.314Z,46.49
2022-08-12T23:54:00.280Z,45.53
2022-08-12T23:56:33.911Z,45.57
2022-08-12T23:59:07.214Z,45.03
